createdAt,value
2022-10-22T00:03:18.437Z,232
2022-10-22T00:06:58.666Z,230
2022-10-22T00:10:40.530Z,230
2022-10-22T00:14:21.008Z,229
2022-10-22T00:18:05.888Z,235
2022-10-22T00:21:46.216Z,239
2022-10-22T00:25:26.981Z,241
2022-10-22T00:29:07.284Z,236
2022-10-22T00:32:48.416Z,228
2022-10-22T00:36:29.012Z,206
2022-10-22T00:40:09.199Z,213
2022-10-22T00:43:50.610Z,191
2022-10-22T00:47:30.866Z,122
2022-10-22T00:51:10.978Z,125
2022-10-22T00:54:51.630Z,124
2022-10-22T00:58:32.237Z,122
2022-10-22T01:03:18.975Z,124
2022-10-22T01:06:59.383Z,120
2022-10-22T01:10:40.982Z,123
2022-10-22T01:14:21.787Z,122
2022-10-22T01:18:01.936Z,142
2022-10-22T01:21:41.807Z,144
2022-10-22T01:25:22.058Z,143
2022-10-22T01:29:02.597Z,142
2022-10-22T01:32:43.212Z,139
2022-10-22T01:36:24.112Z,140
2022-10-22T01:40:04.693Z,129
2022-10-22T01:43:44.909Z,128
2022-10-22T01:47:25.229Z,129
2022-10-22T01:51:05.408Z,128
2022-10-22T01:54:46.674Z,128
2022-10-22T01:58:27.249Z,107
2022-10-22T02:03:21.291Z,108
2022-10-22T02:07:03.897Z,121
2022-10-22T02:10:45.290Z,121
2022-10-22T02:14:27.485Z,120
2022-10-22T02:18:07.879Z,120
2022-10-22T02:21:47.822Z,122
2022-10-22T02:25:28.083Z,120
2022-10-22T02:29:12.841Z,120
2022-10-22T02:32:54.008Z,108
2022-10-22T02:36:34.961Z,107
2022-10-22T02:40:16.321Z,127
2022-10-22T02:43:56.776Z,128
2022-10-22T02:47:38.125Z,128
2022-10-22T02:51:18.646Z,129
2022-10-22T02:54:58.830Z,143
2022-10-22T02:58:39.593Z,142
2022-10-22T03:03:19.037Z,141
2022-10-22T03:06:59.444Z,141
2022-10-22T03:10:41.336Z,139
2022-10-22T03:14:21.627Z,126
2022-10-22T03:18:01.699Z,140
2022-10-22T03:21:41.740Z,140
2022-10-22T03:25:22.203Z,121
2022-10-22T03:29:02.692Z,108
2022-10-22T03:32:43.000Z,107
2022-10-22T03:36:23.069Z,121
2022-10-22T03:40:03.072Z,119
2022-10-22T03:43:42.895Z,121
2022-10-22T03:47:23.634Z,120
2022-10-22T03:51:04.192Z,119
2022-10-22T03:54:44.683Z,120
2022-10-22T03:58:26.045Z,120
2022-10-22T04:03:18.396Z,119
2022-10-22T04:08:50.064Z,140
2022-10-22T04:12:31.146Z,141
2022-10-22T04:16:12.571Z,141
2022-10-22T04:19:53.467Z,140
2022-10-22T04:23:35.010Z,140
2022-10-22T04:27:16.175Z,141
2022-10-22T04:31:02.274Z,125
2022-10-22T04:34:43.517Z,127
2022-10-22T04:38:25.349Z,128
2022-10-22T04:42:06.427Z,128
2022-10-22T04:45:54.537Z,127
2022-10-22T04:49:35.699Z,107
2022-10-22T04:53:16.534Z,106
2022-10-22T04:56:59.074Z,106
2022-10-22T05:03:23.593Z,108
2022-10-22T05:07:04.714Z,109
2022-10-22T05:10:47.391Z,110
2022-10-22T05:14:28.422Z,108
2022-10-22T05:18:10.030Z,107
2022-10-22T05:21:50.852Z,106
2022-10-22T05:25:31.777Z,105
2022-10-22T05:29:13.136Z,109
2022-10-22T05:32:53.856Z,127
2022-10-22T05:36:40.039Z,126
2022-10-22T05:40:42.781Z,128
2022-10-22T05:44:24.075Z,133
2022-10-22T05:48:09.061Z,140
2022-10-22T05:51:50.259Z,141
2022-10-22T05:55:31.612Z,142
2022-10-22T05:59:12.658Z,138
2022-10-22T06:03:23.049Z,121
2022-10-22T06:07:04.056Z,133
2022-10-22T06:10:45.289Z,135
2022-10-22T06:14:30.683Z,132
2022-10-22T06:18:11.212Z,100
2022-10-22T06:21:52.536Z,100
2022-10-22T06:25:38.766Z,97
2022-10-22T06:29:20.126Z,100
2022-10-22T06:33:00.923Z,100
2022-10-22T06:36:45.644Z,101
2022-10-22T06:40:27.614Z,100
2022-10-22T06:44:13.507Z,100
2022-10-22T06:48:00.869Z,186
2022-10-22T06:51:41.042Z,100
2022-10-22T06:55:21.821Z,99
2022-10-22T06:59:02.466Z,117
2022-10-22T07:03:19.738Z,128
2022-10-22T07:06:59.944Z,119
2022-10-22T07:10:43.431Z,144
2022-10-22T07:14:24.891Z,128
2022-10-22T07:18:13.014Z,147
2022-10-22T07:21:55.111Z,126
2022-10-22T07:25:41.223Z,127
2022-10-22T07:29:22.816Z,125
2022-10-22T07:33:06.887Z,244
2022-10-22T07:36:48.152Z,207
2022-10-22T07:40:35.829Z,182
2022-10-22T07:44:16.893Z,215
2022-10-22T07:47:58.295Z,188
2022-10-22T07:51:39.138Z,162
2022-10-22T07:55:20.307Z,213
2022-10-22T08:03:23.238Z,181
2022-10-22T08:07:03.946Z,158
2022-10-22T08:10:45.792Z,169
2022-10-22T08:14:33.968Z,164
2022-10-22T08:18:16.382Z,206
2022-10-22T08:21:57.360Z,180
2022-10-22T08:25:38.673Z,203
2022-10-22T08:29:22.172Z,206
2022-10-22T08:33:05.363Z,214
2022-10-22T08:36:50.251Z,204
2022-10-22T08:40:31.925Z,181
2022-10-22T08:44:12.998Z,218
2022-10-22T08:47:58.877Z,198
2022-10-22T08:51:45.017Z,212
2022-10-22T08:55:26.491Z,180
2022-10-22T08:59:07.207Z,184
2022-10-22T09:03:19.090Z,193
2022-10-22T09:07:05.870Z,179
2022-10-22T09:10:47.929Z,162
2022-10-22T09:14:28.661Z,173
2022-10-22T09:18:09.746Z,190
2022-10-22T09:21:51.479Z,162
2022-10-22T09:25:33.614Z,201
2022-10-22T09:29:15.782Z,193
2022-10-22T09:32:56.609Z,190
2022-10-22T09:36:37.468Z,163
2022-10-22T09:40:18.824Z,172
2022-10-22T09:43:59.730Z,161
2022-10-22T09:48:08.836Z,181
2022-10-22T09:51:49.644Z,181
2022-10-22T09:55:31.163Z,185
2022-10-22T09:59:15.923Z,202
2022-10-22T10:03:38.080Z,216
2022-10-22T10:07:20.601Z,199
2022-10-22T10:11:02.075Z,188
2022-10-22T10:14:44.172Z,205
2022-10-22T10:18:25.407Z,203
2022-10-22T10:22:07.693Z,180
2022-10-22T10:25:49.933Z,189
2022-10-22T10:29:31.436Z,201
2022-10-22T10:33:18.567Z,175
2022-10-22T10:36:59.534Z,171
2022-10-22T10:40:41.606Z,167
2022-10-22T10:44:22.979Z,160
2022-10-22T10:48:06.969Z,204
2022-10-22T10:51:48.340Z,167
2022-10-22T10:55:29.986Z,102
2022-10-22T10:59:16.640Z,102
2022-10-22T11:03:19.322Z,110
2022-10-22T11:07:33.505Z,99
2022-10-22T11:15:02.106Z,118
2022-10-22T11:18:43.553Z,140
2022-10-22T11:23:29.070Z,120
2022-10-22T11:27:10.288Z,122
2022-10-22T11:31:05.556Z,120
2022-10-22T11:35:25.702Z,129
2022-10-22T11:39:12.661Z,120
2022-10-22T11:42:53.815Z,121
2022-10-22T11:46:35.006Z,136
2022-10-22T11:50:16.841Z,139
2022-10-22T11:54:02.845Z,121
2022-10-22T11:57:44.814Z,134
2022-10-22T12:03:19.872Z,110
2022-10-22T12:07:01.139Z,101
2022-10-22T12:10:46.852Z,99
2022-10-22T12:14:28.379Z,98
2022-10-22T12:18:43.781Z,138
2022-10-22T12:22:24.984Z,155
2022-10-22T12:26:12.071Z,150
2022-10-22T12:30:00.820Z,150
2022-10-22T12:33:41.932Z,156
2022-10-22T12:37:23.933Z,144
2022-10-22T12:41:05.071Z,142
2022-10-22T12:44:46.124Z,155
2022-10-22T12:48:32.560Z,180
2022-10-22T12:52:18.961Z,139
2022-10-22T12:55:59.655Z,136
2022-10-22T12:59:40.520Z,1808
2022-10-22T13:03:19.159Z,143
2022-10-22T13:07:00.119Z,133
2022-10-22T13:10:41.810Z,133
2022-10-22T13:14:22.638Z,132
2022-10-22T13:18:03.498Z,118
2022-10-22T13:21:44.212Z,97
2022-10-22T13:25:25.217Z,99
2022-10-22T13:29:05.817Z,100
2022-10-22T13:32:46.815Z,109
2022-10-22T13:36:27.870Z,100
2022-10-22T13:40:12.362Z,97
2022-10-22T13:43:53.012Z,100
2022-10-22T13:47:34.357Z,118
2022-10-22T13:51:15.142Z,99
2022-10-22T13:54:59.577Z,98
2022-10-22T13:58:41.519Z,119
2022-10-22T14:03:19.375Z,129
2022-10-22T14:07:04.530Z,122
2022-10-22T14:10:47.082Z,121
2022-10-22T14:14:34.080Z,119
2022-10-22T14:18:15.475Z,139
2022-10-22T14:21:56.399Z,119
2022-10-22T14:25:37.755Z,119
2022-10-22T14:29:56.047Z,118
2022-10-22T14:33:43.855Z,128
2022-10-22T14:37:25.228Z,117
2022-10-22T14:41:06.479Z,117
2022-10-22T14:44:48.444Z,119
2022-10-22T14:48:30.688Z,118
2022-10-22T14:52:14.188Z,99
2022-10-22T14:55:55.865Z,98
2022-10-22T14:59:38.282Z,99
2022-10-22T15:03:19.520Z,109
2022-10-22T15:07:00.574Z,98
2022-10-22T15:10:42.687Z,98
2022-10-22T15:14:23.568Z,96
2022-10-22T15:18:18.658Z,117
2022-10-22T15:21:59.654Z,99
2022-10-22T15:25:41.112Z,117
2022-10-22T15:29:26.542Z,120
2022-10-22T15:33:06.979Z,126
2022-10-22T15:36:50.791Z,120
2022-10-22T15:40:31.551Z,119
2022-10-22T15:44:12.985Z,119
2022-10-22T15:47:58.583Z,138
2022-10-22T15:51:40.245Z,119
2022-10-22T15:55:21.496Z,119
2022-10-22T15:59:04.297Z,118
2022-10-22T16:03:19.287Z,128
2022-10-22T16:08:47.522Z,139
2022-10-22T16:12:28.619Z,160
2022-10-22T16:16:09.990Z,165
2022-10-22T16:19:50.673Z,165
2022-10-22T16:23:32.838Z,144
2022-10-22T16:27:13.457Z,143
2022-10-22T16:30:54.024Z,154
2022-10-22T16:34:44.654Z,135
2022-10-22T16:38:25.925Z,209
2022-10-22T16:42:11.294Z,2016
2022-10-22T16:45:52.708Z,1912
2022-10-22T16:49:35.226Z,2009
2022-10-22T16:53:16.608Z,1987
2022-10-22T16:57:01.922Z,2088
2022-10-22T17:03:31.643Z,327
2022-10-22T17:07:12.263Z,224
2022-10-22T17:10:54.699Z,246
2022-10-22T17:14:40.495Z,319
2022-10-22T17:18:20.801Z,282
2022-10-22T17:22:01.556Z,373
2022-10-22T17:25:43.021Z,331
2022-10-22T17:29:25.045Z,1915
2022-10-22T17:33:10.531Z,288
2022-10-22T17:36:51.444Z,244
2022-10-22T17:40:33.557Z,228
2022-10-22T17:44:20.957Z,202
2022-10-22T17:48:02.026Z,205
2022-10-22T17:51:53.592Z,212
2022-10-22T17:55:35.107Z,377
2022-10-22T17:59:16.202Z,313
2022-10-22T18:03:19.189Z,217
2022-10-22T18:06:59.853Z,291
2022-10-22T18:10:50.755Z,321
2022-10-22T18:14:32.259Z,335
2022-10-22T18:18:17.581Z,243
2022-10-22T18:21:58.293Z,224
2022-10-22T18:25:38.808Z,236
2022-10-22T18:29:25.052Z,215
2022-10-22T18:33:12.429Z,231
2022-10-22T18:36:59.387Z,240
2022-10-22T18:40:46.390Z,209
2022-10-22T18:44:34.651Z,224
2022-10-22T18:48:15.462Z,235
2022-10-22T18:51:57.357Z,158
2022-10-22T18:56:09.110Z,176
2022-10-22T18:59:55.934Z,158
2022-10-22T19:03:19.042Z,190
2022-10-22T19:06:59.225Z,169
2022-10-22T19:10:45.571Z,180
2022-10-22T19:14:26.353Z,172
2022-10-22T19:18:06.944Z,168
2022-10-22T19:21:47.593Z,188
2022-10-22T19:25:28.261Z,188
2022-10-22T19:29:08.632Z,202
2022-10-22T19:32:49.635Z,206
2022-10-22T19:36:29.939Z,209
2022-10-22T19:40:10.616Z,223
2022-10-22T19:43:56.456Z,223
2022-10-22T19:47:37.145Z,223
2022-10-22T19:51:23.387Z,192
2022-10-22T19:55:04.347Z,211
2022-10-22T19:58:46.081Z,204
2022-10-22T20:03:19.271Z,244
2022-10-22T20:07:00.985Z,224
2022-10-22T20:10:48.182Z,188
2022-10-22T20:14:35.372Z,195
2022-10-22T20:18:16.752Z,184
2022-10-22T20:22:01.577Z,188
2022-10-22T20:25:42.883Z,193
2022-10-22T20:29:23.642Z,193
2022-10-22T20:33:08.617Z,195
2022-10-22T20:36:48.908Z,191
2022-10-22T20:40:29.694Z,189
2022-10-22T20:44:12.547Z,188
2022-10-22T20:48:10.724Z,191
2022-10-22T20:51:51.641Z,233
2022-10-22T20:55:31.969Z,238
2022-10-22T20:59:15.806Z,240
2022-10-22T21:03:18.357Z,230
2022-10-22T21:06:58.573Z,241
2022-10-22T21:10:43.881Z,222
2022-10-22T21:14:26.209Z,238
2022-10-22T21:18:12.741Z,226
2022-10-22T21:21:58.704Z,184
2022-10-22T21:25:43.251Z,203
2022-10-22T21:29:24.723Z,200
2022-10-22T21:33:05.119Z,193
2022-10-22T21:40:30.888Z,183
2022-10-22T21:44:11.326Z,204
2022-10-22T21:48:05.567Z,156
2022-10-22T21:51:45.716Z,196
2022-10-22T21:55:26.569Z,127
2022-10-22T21:59:07.143Z,1847
2022-10-22T22:03:21.360Z,1864
2022-10-22T22:07:09.573Z,1887
2022-10-22T22:10:51.162Z,1939
2022-10-22T22:14:32.180Z,244
2022-10-22T22:18:18.590Z,226
2022-10-22T22:21:58.947Z,242
2022-10-22T22:25:39.905Z,193
2022-10-22T22:29:25.770Z,193
2022-10-22T22:33:06.037Z,196
2022-10-22T22:36:46.240Z,198
2022-10-22T22:40:29.202Z,218
2022-10-22T22:44:11.837Z,188
2022-10-22T22:47:52.680Z,184
2022-10-22T22:51:33.085Z,177
2022-10-22T22:55:16.611Z,184
2022-10-22T22:58:57.101Z,180
2022-10-22T23:03:20.006Z,190
2022-10-22T23:07:00.526Z,188
2022-10-22T23:10:42.030Z,185
2022-10-22T23:14:22.946Z,200
2022-10-22T23:18:03.681Z,187
2022-10-22T23:21:44.350Z,182
2022-10-22T23:25:25.362Z,193
2022-10-22T23:29:05.922Z,229
2022-10-22T23:32:46.583Z,210
2022-10-22T23:36:27.002Z,195
2022-10-22T23:40:07.247Z,194
2022-10-22T23:43:47.525Z,202
2022-10-22T23:47:27.949Z,204
2022-10-22T23:51:08.221Z,194
2022-10-22T23:54:48.567Z,187
2022-10-22T23:58:29.114Z,212
